sensor_id;sensor_type;location;lat;lon;timestamp;temperature;humidity
11387;DHT22;5748;53.102;8.456;2023-05-10T00:00:43;20.20;56.50
11387;DHT22;5748;53.102;8.456;2023-05-10T00:03:10;20.20;56.50
11387;DHT22;5748;53.102;8.456;2023-05-10T00:05:37;20.20;56.10
11387;DHT22;5748;53.102;8.456;2023-05-10T00:08:29;20.10;56.60
11387;DHT22;5748;53.102;8.456;2023-05-10T00:10:56;20.20;57.90
11387;DHT22;5748;53.102;8.456;2023-05-10T00:13:31;20.20;56.50
11387;DHT22;5748;53.102;8.456;2023-05-10T00:15:59;20.20;57.30
11387;DHT22;5748;53.102;8.456;2023-05-10T00:18:26;20.30;56.60
11387;DHT22;5748;53.102;8.456;2023-05-10T00:20:53;20.20;56.60
11387;DHT22;5748;53.102;8.456;2023-05-10T00:23:20;20.20;56.70
11387;DHT22;5748;53.102;8.456;2023-05-10T00:25:48;20.20;56.80
11387;DHT22;5748;53.102;8.456;2023-05-10T00:28:28;20.20;56.80
11387;DHT22;5748;53.102;8.456;2023-05-10T00:30:55;20.20;57.80
11387;DHT22;5748;53.102;8.456;2023-05-10T00:33:22;20.20;56.80
11387;DHT22;5748;53.102;8.456;2023-05-10T00:35:49;20.10;57.10
11387;DHT22;5748;53.102;8.456;2023-05-10T00:38:17;20.20;56.90
11387;DHT22;5748;53.102;8.456;2023-05-10T00:40:44;20.10;56.90
11387;DHT22;5748;53.102;8.456;2023-05-10T00:43:15;20.10;57.00
11387;DHT22;5748;53.102;8.456;2023-05-10T00:45:43;20.10;56.80
11387;DHT22;5748;53.102;8.456;2023-05-10T00:48:10;20.00;57.00
11387;DHT22;5748;53.102;8.456;2023-05-10T00:50:38;20.20;57.20
11387;DHT22;5748;53.102;8.456;2023-05-10T00:53:06;20.00;57.00
11387;DHT22;5748;53.102;8.456;2023-05-10T00:55:40;20.10;56.80
11387;DHT22;5748;53.102;8.456;2023-05-10T00:58:07;20.00;57.70
11387;DHT22;5748;53.102;8.456;2023-05-10T01:00:36;20.00;57.30
11387;DHT22;5748;53.102;8.456;2023-05-10T01:03:05;19.90;57.30
11387;DHT22;5748;53.102;8.456;2023-05-10T01:05:33;20.00;57.00
11387;DHT22;5748;53.102;8.456;2023-05-10T01:08:28;20.00;57.40
11387;DHT22;5748;53.102;8.456;2023-05-10T01:10:56;20.00;58.70
11387;DHT22;5748;53.102;8.456;2023-05-10T01:13:31;20.00;57.40
11387;DHT22;5748;53.102;8.456;2023-05-10T01:16:01;20.00;58.10
11387;DHT22;5748;53.102;8.456;2023-05-10T01:18:29;20.00;57.70
11387;DHT22;5748;53.102;8.456;2023-05-10T01:21:05;20.00;57.70
11387;DHT22;5748;53.102;8.456;2023-05-10T01:24:08;20.00;58.00
11387;DHT22;5748;53.102;8.456;2023-05-10T01:27:10;20.00;58.60
11387;DHT22;5748;53.102;8.456;2023-05-10T01:30:05;20.00;58.60
11387;DHT22;5748;53.102;8.456;2023-05-10T01:32:52;20.10;58.60
11387;DHT22;5748;53.102;8.456;2023-05-10T01:35:27;20.00;57.60
11387;DHT22;5748;53.102;8.456;2023-05-10T01:38:04;20.00;57.80
11387;DHT22;5748;53.102;8.456;2023-05-10T01:40:39;19.90;57.80
11387;DHT22;5748;53.102;8.456;2023-05-10T01:43:16;20.00;57.80
11387;DHT22;5748;53.102;8.456;2023-05-10T01:45:50;19.90;57.50
11387;DHT22;5748;53.102;8.456;2023-05-10T01:48:31;19.90;58.00
11387;DHT22;5748;53.102;8.456;2023-05-10T01:50:59;20.00;58.60
11387;DHT22;5748;53.102;8.456;2023-05-10T01:53:26;19.90;57.80
11387;DHT22;5748;53.102;8.456;2023-05-10T01:55:55;19.80;57.70
11387;DHT22;5748;53.102;8.456;2023-05-10T01:58:27;19.70;57.90
11387;DHT22;5748;53.102;8.456;2023-05-10T02:00:57;19.70;58.20
11387;DHT22;5748;53.102;8.456;2023-05-10T02:03:26;19.70;57.20
11387;DHT22;5748;53.102;8.456;2023-05-10T02:05:56;19.60;57.70
11387;DHT22;5748;53.102;8.456;2023-05-10T02:08:25;19.70;57.70
11387;DHT22;5748;53.102;8.456;2023-05-10T02:10:55;19.60;57.40
11387;DHT22;5748;53.102;8.456;2023-05-10T02:13:24;19.60;57.40
11387;DHT22;5748;53.102;8.456;2023-05-10T02:15:53;19.50;57.10
11387;DHT22;5748;53.102;8.456;2023-05-10T02:18:23;19.50;57.00
11387;DHT22;5748;53.102;8.456;2023-05-10T02:20:52;19.50;57.10
11387;DHT22;5748;53.102;8.456;2023-05-10T02:23:22;19.30;56.80
11387;DHT22;5748;53.102;8.456;2023-05-10T02:25:51;19.20;56.80
11387;DHT22;5748;53.102;8.456;2023-05-10T02:28:21;19.10;56.90
11387;DHT22;5748;53.102;8.456;2023-05-10T02:30:50;19.10;56.90
11387;DHT22;5748;53.102;8.456;2023-05-10T02:33:18;19.00;56.90
11387;DHT22;5748;53.102;8.456;2023-05-10T02:35:47;18.90;56.60
11387;DHT22;5748;53.102;8.456;2023-05-10T02:38:18;18.90;56.80
11387;DHT22;5748;53.102;8.456;2023-05-10T02:40:47;18.80;56.90
11387;DHT22;5748;53.102;8.456;2023-05-10T02:43:17;18.80;56.70
11387;DHT22;5748;53.102;8.456;2023-05-10T02:45:47;18.80;56.80
11387;DHT22;5748;53.102;8.456;2023-05-10T02:48:27;18.70;56.70
11387;DHT22;5748;53.102;8.456;2023-05-10T02:50:56;18.60;57.10
11387;DHT22;5748;53.102;8.456;2023-05-10T02:53:31;18.60;56.10
11387;DHT22;5748;53.102;8.456;2023-05-10T02:56:09;18.60;56.80
11387;DHT22;5748;53.102;8.456;2023-05-10T02:58:39;18.50;56.60
11387;DHT22;5748;53.102;8.456;2023-05-10T03:01:07;18.50;56.50
11387;DHT22;5748;53.102;8.456;2023-05-10T03:03:34;18.40;56.70
11387;DHT22;5748;53.102;8.456;2023-05-10T03:06:01;18.30;56.60
11387;DHT22;5748;53.102;8.456;2023-05-10T03:08:48;18.30;56.70
11387;DHT22;5748;53.102;8.456;2023-05-10T03:11:35;18.20;57.60
11387;DHT22;5748;53.102;8.456;2023-05-10T03:14:21;18.10;57.50
11387;DHT22;5748;53.102;8.456;2023-05-10T03:17:00;18.00;57.00
11387;DHT22;5748;53.102;8.456;2023-05-10T03:19:42;18.10;57.00
11387;DHT22;5748;53.102;8.456;2023-05-10T03:22:13;17.90;57.10
11387;DHT22;5748;53.102;8.456;2023-05-10T03:24:54;18.00;56.90
11387;DHT22;5748;53.102;8.456;2023-05-10T03:27:23;17.90;57.00
11387;DHT22;5748;53.102;8.456;2023-05-10T03:29:52;17.80;56.80
11387;DHT22;5748;53.102;8.456;2023-05-10T03:32:20;17.80;56.90
11387;DHT22;5748;53.102;8.456;2023-05-10T03:34:47;17.80;56.90
11387;DHT22;5748;53.102;8.456;2023-05-10T03:37:15;17.80;56.90
11387;DHT22;5748;53.102;8.456;2023-05-10T03:39:42;17.70;56.90
11387;DHT22;5748;53.102;8.456;2023-05-10T03:42:10;17.60;57.00
11387;DHT22;5748;53.102;8.456;2023-05-10T03:44:37;17.60;57.10
11387;DHT22;5748;53.102;8.456;2023-05-10T03:47:04;17.60;57.10
11387;DHT22;5748;53.102;8.456;2023-05-10T03:49:32;17.60;57.70
11387;DHT22;5748;53.102;8.456;2023-05-10T03:51:59;17.50;57.10
11387;DHT22;5748;53.102;8.456;2023-05-10T03:54:26;18.20;57.70
11387;DHT22;5748;53.102;8.456;2023-05-10T03:56:53;17.30;57.10
11387;DHT22;5748;53.102;8.456;2023-05-10T03:59:21;17.50;57.40
11387;DHT22;5748;53.102;8.456;2023-05-10T04:01:48;17.30;57.30
11387;DHT22;5748;53.102;8.456;2023-05-10T04:04:15;17.40;57.50
11387;DHT22;5748;53.102;8.456;2023-05-10T04:06:44;17.40;57.50
11387;DHT22;5748;53.102;8.456;2023-05-10T04:09:11;17.40;57.50
11387;DHT22;5748;53.102;8.456;2023-05-10T04:11:38;17.20;57.40
11387;DHT22;5748;53.102;8.456;2023-05-10T04:14:05;17.20;57.40
11387;DHT22;5748;53.102;8.456;2023-05-10T04:16:34;17.30;57.50
11387;DHT22;5748;53.102;8.456;2023-05-10T04:19:01;17.20;57.60
11387;DHT22;5748;53.102;8.456;2023-05-10T04:21:28;17.20;57.70
11387;DHT22;5748;53.102;8.456;2023-05-10T04:23:55;17.10;57.80
11387;DHT22;5748;53.102;8.456;2023-05-10T04:26:23;17.20;57.90
11387;DHT22;5748;53.102;8.456;2023-05-10T04:28:50;17.20;58.00
11387;DHT22;5748;53.102;8.456;2023-05-10T04:31:19;18.00;58.80
11387;DHT22;5748;53.102;8.456;2023-05-10T04:33:48;17.10;58.10
11387;DHT22;5748;53.102;8.456;2023-05-10T04:36:15;18.40;59.40
11387;DHT22;5748;53.102;8.456;2023-05-10T04:38:42;17.00;58.10
11387;DHT22;5748;53.102;8.456;2023-05-10T04:41:10;17.10;58.20
11387;DHT22;5748;53.102;8.456;2023-05-10T04:43:37;17.30;58.50
11387;DHT22;5748;53.102;8.456;2023-05-10T04:46:05;17.10;58.40
11387;DHT22;5748;53.102;8.456;2023-05-10T04:48:32;17.10;58.40
11387;DHT22;5748;53.102;8.456;2023-05-10T04:51:02;17.10;58.40
11387;DHT22;5748;53.102;8.456;2023-05-10T04:53:30;17.10;58.70
11387;DHT22;5748;53.102;8.456;2023-05-10T04:55:57;17.10;58.50
11387;DHT22;5748;53.102;8.456;2023-05-10T04:58:24;17.10;58.60
11387;DHT22;5748;53.102;8.456;2023-05-10T05:00:51;17.10;58.70
11387;DHT22;5748;53.102;8.456;2023-05-10T05:03:18;17.10;59.50
11387;DHT22;5748;53.102;8.456;2023-05-10T05:05:53;17.20;58.90
11387;DHT22;5748;53.102;8.456;2023-05-10T05:08:22;17.10;59.40
11387;DHT22;5748;53.102;8.456;2023-05-10T05:10:49;17.20;59.00
11387;DHT22;5748;53.102;8.456;2023-05-10T05:13:16;17.20;59.00
11387;DHT22;5748;53.102;8.456;2023-05-10T05:15:51;17.20;59.10
11387;DHT22;5748;53.102;8.456;2023-05-10T05:18:18;17.20;59.60
11387;DHT22;5748;53.102;8.456;2023-05-10T05:20:46;17.30;59.20
11387;DHT22;5748;53.102;8.456;2023-05-10T05:23:13;17.50;59.40
11387;DHT22;5748;53.102;8.456;2023-05-10T05:25:41;17.50;59.10
11387;DHT22;5748;53.102;8.456;2023-05-10T05:28:08;17.50;59.50
11387;DHT22;5748;53.102;8.456;2023-05-10T05:30:35;17.40;59.40
11387;DHT22;5748;53.102;8.456;2023-05-10T05:33:03;17.60;59.50
11387;DHT22;5748;53.102;8.456;2023-05-10T05:35:30;18.30;60.20
11387;DHT22;5748;53.102;8.456;2023-05-10T05:37:57;17.70;59.70
11387;DHT22;5748;53.102;8.456;2023-05-10T05:40:24;17.70;59.70
11387;DHT22;5748;53.102;8.456;2023-05-10T05:42:53;17.70;59.70
11387;DHT22;5748;53.102;8.456;2023-05-10T05:45:19;17.80;60.00
11387;DHT22;5748;53.102;8.456;2023-05-10T05:47:47;17.80;60.00
11387;DHT22;5748;53.102;8.456;2023-05-10T05:50:14;17.70;60.00
11387;DHT22;5748;53.102;8.456;2023-05-10T05:52:41;17.80;60.00
11387;DHT22;5748;53.102;8.456;2023-05-10T05:55:08;17.80;60.10
11387;DHT22;5748;53.102;8.456;2023-05-10T05:57:36;17.80;60.50
11387;DHT22;5748;53.102;8.456;2023-05-10T06:00:07;17.80;60.40
11387;DHT22;5748;53.102;8.456;2023-05-10T06:02:36;17.80;60.70
11387;DHT22;5748;53.102;8.456;2023-05-10T06:05:04;17.80;60.50
11387;DHT22;5748;53.102;8.456;2023-05-10T06:07:32;17.80;60.60
11387;DHT22;5748;53.102;8.456;2023-05-10T06:10:01;17.80;60.80
11387;DHT22;5748;53.102;8.456;2023-05-10T06:12:29;17.80;60.80
11387;DHT22;5748;53.102;8.456;2023-05-10T06:14:57;17.90;60.80
11387;DHT22;5748;53.102;8.456;2023-05-10T06:17:25;18.00;60.90
11387;DHT22;5748;53.102;8.456;2023-05-10T06:19:53;17.90;60.90
11387;DHT22;5748;53.102;8.456;2023-05-10T06:22:20;17.90;60.70
11387;DHT22;5748;53.102;8.456;2023-05-10T06:24:48;18.00;60.90
11387;DHT22;5748;53.102;8.456;2023-05-10T06:27:15;17.90;60.70
11387;DHT22;5748;53.102;8.456;2023-05-10T06:29:43;18.00;60.90
11387;DHT22;5748;53.102;8.456;2023-05-10T06:32:10;18.00;61.40
11387;DHT22;5748;53.102;8.456;2023-05-10T06:34:38;18.20;61.30
11387;DHT22;5748;53.102;8.456;2023-05-10T06:37:05;18.00;61.10
11387;DHT22;5748;53.102;8.456;2023-05-10T06:39:32;18.10;61.10
11387;DHT22;5748;53.102;8.456;2023-05-10T06:41:59;18.10;61.10
11387;DHT22;5748;53.102;8.456;2023-05-10T06:44:27;18.10;61.10
11387;DHT22;5748;53.102;8.456;2023-05-10T06:46:54;18.10;61.20
11387;DHT22;5748;53.102;8.456;2023-05-10T06:49:22;18.20;61.50
11387;DHT22;5748;53.102;8.456;2023-05-10T06:51:51;18.20;61.50
11387;DHT22;5748;53.102;8.456;2023-05-10T06:54:18;18.20;61.20
11387;DHT22;5748;53.102;8.456;2023-05-10T06:56:45;18.20;61.20
11387;DHT22;5748;53.102;8.456;2023-05-10T06:59:12;18.20;61.20
11387;DHT22;5748;53.102;8.456;2023-05-10T07:01:41;18.30;61.00
11387;DHT22;5748;53.102;8.456;2023-05-10T07:04:08;18.30;61.20
11387;DHT22;5748;53.102;8.456;2023-05-10T07:06:35;18.20;61.00
11387;DHT22;5748;53.102;8.456;2023-05-10T07:09:04;18.30;61.20
11387;DHT22;5748;53.102;8.456;2023-05-10T07:11:33;18.20;61.30
11387;DHT22;5748;53.102;8.456;2023-05-10T07:14:00;18.20;61.40
11387;DHT22;5748;53.102;8.456;2023-05-10T07:16:27;18.30;61.70
11387;DHT22;5748;53.102;8.456;2023-05-10T07:18:54;18.20;61.60
11387;DHT22;5748;53.102;8.456;2023-05-10T07:21:31;18.20;61.70
11387;DHT22;5748;53.102;8.456;2023-05-10T07:23:58;18.30;62.70
11387;DHT22;5748;53.102;8.456;2023-05-10T07:26:27;18.40;62.20
11387;DHT22;5748;53.102;8.456;2023-05-10T07:28:55;18.30;62.30
11387;DHT22;5748;53.102;8.456;2023-05-10T07:31:22;18.40;62.40
11387;DHT22;5748;53.102;8.456;2023-05-10T07:33:49;18.40;62.30
11387;DHT22;5748;53.102;8.456;2023-05-10T07:36:16;18.60;62.40
11387;DHT22;5748;53.102;8.456;2023-05-10T07:38:43;18.60;62.60
11387;DHT22;5748;53.102;8.456;2023-05-10T07:41:11;18.70;62.50
11387;DHT22;5748;53.102;8.456;2023-05-10T07:43:40;18.70;62.80
11387;DHT22;5748;53.102;8.456;2023-05-10T07:46:07;18.70;62.50
11387;DHT22;5748;53.102;8.456;2023-05-10T07:48:36;18.70;62.60
11387;DHT22;5748;53.102;8.456;2023-05-10T07:51:03;18.80;62.90
11387;DHT22;5748;53.102;8.456;2023-05-10T07:53:31;18.90;63.40
11387;DHT22;5748;53.102;8.456;2023-05-10T07:55:59;19.00;63.00
11387;DHT22;5748;53.102;8.456;2023-05-10T07:58:26;19.00;63.00
11387;DHT22;5748;53.102;8.456;2023-05-10T08:00:55;19.20;63.10
11387;DHT22;5748;53.102;8.456;2023-05-10T08:03:22;19.20;62.80
11387;DHT22;5748;53.102;8.456;2023-05-10T08:05:49;19.20;62.50
11387;DHT22;5748;53.102;8.456;2023-05-10T08:08:17;19.30;62.40
11387;DHT22;5748;53.102;8.456;2023-05-10T08:10:45;19.40;62.40
11387;DHT22;5748;53.102;8.456;2023-05-10T08:13:12;19.40;62.10
11387;DHT22;5748;53.102;8.456;2023-05-10T08:15:39;19.40;61.30
11387;DHT22;5748;53.102;8.456;2023-05-10T08:18:08;19.40;61.80
11387;DHT22;5748;53.102;8.456;2023-05-10T08:20:35;19.40;61.80
11387;DHT22;5748;53.102;8.456;2023-05-10T08:23:02;19.40;61.70
11387;DHT22;5748;53.102;8.456;2023-05-10T08:25:29;19.40;61.80
11387;DHT22;5748;53.102;8.456;2023-05-10T08:27:56;19.50;62.30
11387;DHT22;5748;53.102;8.456;2023-05-10T08:30:23;19.50;62.30
11387;DHT22;5748;53.102;8.456;2023-05-10T08:32:50;19.50;62.30
11387;DHT22;5748;53.102;8.456;2023-05-10T08:35:18;19.50;62.10
11387;DHT22;5748;53.102;8.456;2023-05-10T08:37:45;19.60;62.10
11387;DHT22;5748;53.102;8.456;2023-05-10T08:40:12;19.60;61.70
11387;DHT22;5748;53.102;8.456;2023-05-10T08:42:45;19.60;61.70
11387;DHT22;5748;53.102;8.456;2023-05-10T08:45:18;19.60;61.70
11387;DHT22;5748;53.102;8.456;2023-05-10T08:47:46;19.60;61.60
11387;DHT22;5748;53.102;8.456;2023-05-10T08:50:15;19.60;61.70
11387;DHT22;5748;53.102;8.456;2023-05-10T08:52:45;19.60;61.70
11387;DHT22;5748;53.102;8.456;2023-05-10T08:55:15;19.60;61.80
11387;DHT22;5748;53.102;8.456;2023-05-10T08:57:42;19.60;61.70
11387;DHT22;5748;53.102;8.456;2023-05-10T09:00:10;19.60;61.70
11387;DHT22;5748;53.102;8.456;2023-05-10T09:02:38;19.60;61.70
11387;DHT22;5748;53.102;8.456;2023-05-10T09:05:06;19.60;61.80
11387;DHT22;5748;53.102;8.456;2023-05-10T09:07:36;19.50;62.00
11387;DHT22;5748;53.102;8.456;2023-05-10T09:10:05;19.60;62.20
11387;DHT22;5748;53.102;8.456;2023-05-10T09:12:33;19.60;62.10
11387;DHT22;5748;53.102;8.456;2023-05-10T09:15:00;19.60;61.90
11387;DHT22;5748;53.102;8.456;2023-05-10T09:17:29;19.60;61.80
11387;DHT22;5748;53.102;8.456;2023-05-10T09:19:59;19.60;61.50
11387;DHT22;5748;53.102;8.456;2023-05-10T09:22:28;19.60;61.40
11387;DHT22;5748;53.102;8.456;2023-05-10T09:25:06;19.60;61.10
11387;DHT22;5748;53.102;8.456;2023-05-10T09:27:35;19.50;61.60
11387;DHT22;5748;53.102;8.456;2023-05-10T09:30:02;19.50;61.60
11387;DHT22;5748;53.102;8.456;2023-05-10T09:32:38;19.40;61.80
11387;DHT22;5748;53.102;8.456;2023-05-10T09:35:07;19.50;63.00
11387;DHT22;5748;53.102;8.456;2023-05-10T09:37:35;19.50;63.00
11387;DHT22;5748;53.102;8.456;2023-05-10T09:40:11;19.50;63.10
11387;DHT22;5748;53.102;8.456;2023-05-10T09:42:39;19.60;63.20
11387;DHT22;5748;53.102;8.456;2023-05-10T09:45:09;19.60;62.70
11387;DHT22;5748;53.102;8.456;2023-05-10T09:47:36;19.70;62.70
11387;DHT22;5748;53.102;8.456;2023-05-10T09:50:03;19.70;62.50
11387;DHT22;5748;53.102;8.456;2023-05-10T09:52:46;19.70;62.70
11387;DHT22;5748;53.102;8.456;2023-05-10T09:55:17;19.70;63.50
11387;DHT22;5748;53.102;8.456;2023-05-10T09:57:45;19.80;62.90
11387;DHT22;5748;53.102;8.456;2023-05-10T10:00:17;19.70;62.80
11387;DHT22;5748;53.102;8.456;2023-05-10T10:02:46;19.80;63.00
11387;DHT22;5748;53.102;8.456;2023-05-10T10:05:15;19.80;63.30
11387;DHT22;5748;53.102;8.456;2023-05-10T10:07:42;19.80;63.50
11387;DHT22;5748;53.102;8.456;2023-05-10T10:10:09;19.90;63.90
11387;DHT22;5748;53.102;8.456;2023-05-10T10:12:39;20.00;64.00
11387;DHT22;5748;53.102;8.456;2023-05-10T10:15:08;20.20;63.80
11387;DHT22;5748;53.102;8.456;2023-05-10T10:17:36;20.20;63.30
11387;DHT22;5748;53.102;8.456;2023-05-10T10:20:05;20.30;63.10
11387;DHT22;5748;53.102;8.456;2023-05-10T10:22:44;20.40;63.30
11387;DHT22;5748;53.102;8.456;2023-05-10T10:25:12;20.50;63.70
11387;DHT22;5748;53.102;8.456;2023-05-10T10:27:47;20.50;63.60
11387;DHT22;5748;53.102;8.456;2023-05-10T10:30:25;20.70;63.90
11387;DHT22;5748;53.102;8.456;2023-05-10T10:33:15;20.80;64.00
11387;DHT22;5748;53.102;8.456;2023-05-10T10:35:52;21.00;64.10
11387;DHT22;5748;53.102;8.456;2023-05-10T10:38:20;21.10;63.60
11387;DHT22;5748;53.102;8.456;2023-05-10T10:40:48;21.20;63.20
11387;DHT22;5748;53.102;8.456;2023-05-10T10:43:26;21.20;62.30
11387;DHT22;5748;53.102;8.456;2023-05-10T10:46:12;21.20;61.30
11387;DHT22;5748;53.102;8.456;2023-05-10T10:48:40;21.10;62.40
11387;DHT22;5748;53.102;8.456;2023-05-10T10:51:07;21.00;61.10
11387;DHT22;5748;53.102;8.456;2023-05-10T10:53:37;20.90;60.90
11387;DHT22;5748;53.102;8.456;2023-05-10T10:56:07;20.80;61.00
11387;DHT22;5748;53.102;8.456;2023-05-10T10:58:37;20.70;61.00
11387;DHT22;5748;53.102;8.456;2023-05-10T11:01:12;20.50;60.90
11387;DHT22;5748;53.102;8.456;2023-05-10T11:04:18;20.40;61.30
11387;DHT22;5748;53.102;8.456;2023-05-10T11:06:46;20.30;62.00
11387;DHT22;5748;53.102;8.456;2023-05-10T11:09:21;20.30;62.00
11387;DHT22;5748;53.102;8.456;2023-05-10T11:11:52;20.30;62.80
11387;DHT22;5748;53.102;8.456;2023-05-10T11:14:23;20.30;62.60
11387;DHT22;5748;53.102;8.456;2023-05-10T11:16:55;20.40;62.80
11387;DHT22;5748;53.102;8.456;2023-05-10T11:19:27;20.40;62.90
11387;DHT22;5748;53.102;8.456;2023-05-10T11:22:12;20.40;63.10
11387;DHT22;5748;53.102;8.456;2023-05-10T11:24:55;20.50;63.40
11387;DHT22;5748;53.102;8.456;2023-05-10T11:27:36;20.50;62.70
11387;DHT22;5748;53.102;8.456;2023-05-10T11:30:07;20.50;62.70
11387;DHT22;5748;53.102;8.456;2023-05-10T11:32:36;20.50;62.80
11387;DHT22;5748;53.102;8.456;2023-05-10T11:38:12;20.60;64.30
11387;DHT22;5748;53.102;8.456;2023-05-10T11:40:40;20.80;64.00
11387;DHT22;5748;53.102;8.456;2023-05-10T11:43:10;20.90;63.60
11387;DHT22;5748;53.102;8.456;2023-05-10T11:45:41;20.90;63.70
11387;DHT22;5748;53.102;8.456;2023-05-10T11:48:08;21.00;62.50
11387;DHT22;5748;53.102;8.456;2023-05-10T11:50:43;20.90;62.00
11387;DHT22;5748;53.102;8.456;2023-05-10T11:53:19;20.90;62.30
11387;DHT22;5748;53.102;8.456;2023-05-10T11:56:04;20.90;62.50
11387;DHT22;5748;53.102;8.456;2023-05-10T11:58:32;20.90;62.80
11387;DHT22;5748;53.102;8.456;2023-05-10T12:01:01;20.90;62.30
11387;DHT22;5748;53.102;8.456;2023-05-10T12:03:40;20.80;62.10
11387;DHT22;5748;53.102;8.456;2023-05-10T12:06:07;20.80;61.60
11387;DHT22;5748;53.102;8.456;2023-05-10T12:08:36;20.70;62.00
11387;DHT22;5748;53.102;8.456;2023-05-10T12:11:07;20.70;62.20
11387;DHT22;5748;53.102;8.456;2023-05-10T12:13:38;20.70;62.20
11387;DHT22;5748;53.102;8.456;2023-05-10T12:16:18;20.60;61.90
11387;DHT22;5748;53.102;8.456;2023-05-10T12:18:48;20.60;62.00
11387;DHT22;5748;53.102;8.456;2023-05-10T12:21:16;20.50;61.80
11387;DHT22;5748;53.102;8.456;2023-05-10T12:23:45;20.50;62.00
11387;DHT22;5748;53.102;8.456;2023-05-10T12:26:14;20.40;62.40
11387;DHT22;5748;53.102;8.456;2023-05-10T12:28:41;20.40;62.40
11387;DHT22;5748;53.102;8.456;2023-05-10T12:31:08;20.40;62.30
11387;DHT22;5748;53.102;8.456;2023-05-10T12:33:38;20.30;62.10
11387;DHT22;5748;53.102;8.456;2023-05-10T12:36:08;20.30;62.10
11387;DHT22;5748;53.102;8.456;2023-05-10T12:38:37;20.30;62.10
11387;DHT22;5748;53.102;8.456;2023-05-10T12:41:10;20.20;62.30
11387;DHT22;5748;53.102;8.456;2023-05-10T12:43:38;20.20;62.40
11387;DHT22;5748;53.102;8.456;2023-05-10T12:46:07;20.20;62.40
11387;DHT22;5748;53.102;8.456;2023-05-10T12:48:34;20.20;62.50
11387;DHT22;5748;53.102;8.456;2023-05-10T12:51:04;20.30;62.70
11387;DHT22;5748;53.102;8.456;2023-05-10T12:53:34;20.20;62.80
11387;DHT22;5748;53.102;8.456;2023-05-10T12:56:02;20.30;62.70
11387;DHT22;5748;53.102;8.456;2023-05-10T12:58:30;20.30;63.50
11387;DHT22;5748;53.102;8.456;2023-05-10T13:00:57;20.40;62.80
11387;DHT22;5748;53.102;8.456;2023-05-10T13:03:41;20.40;62.80
11387;DHT22;5748;53.102;8.456;2023-05-10T13:06:09;20.40;63.00
11387;DHT22;5748;53.102;8.456;2023-05-10T13:08:36;20.40;62.70
11387;DHT22;5748;53.102;8.456;2023-05-10T13:11:03;20.50;62.50
11387;DHT22;5748;53.102;8.456;2023-05-10T13:13:31;20.50;62.40
11387;DHT22;5748;53.102;8.456;2023-05-10T13:15:58;20.50;62.30
11387;DHT22;5748;53.102;8.456;2023-05-10T13:18:25;20.50;62.10
11387;DHT22;5748;53.102;8.456;2023-05-10T13:20:56;20.50;62.20
11387;DHT22;5748;53.102;8.456;2023-05-10T13:23:37;20.50;62.50
11387;DHT22;5748;53.102;8.456;2023-05-10T13:26:04;20.60;62.90
11387;DHT22;5748;53.102;8.456;2023-05-10T13:28:31;20.60;62.60
11387;DHT22;5748;53.102;8.456;2023-05-10T13:30:58;20.60;62.70
11387;DHT22;5748;53.102;8.456;2023-05-10T13:33:31;20.60;62.90
11387;DHT22;5748;53.102;8.456;2023-05-10T13:36:00;20.70;62.70
11387;DHT22;5748;53.102;8.456;2023-05-10T13:38:28;20.70;62.40
11387;DHT22;5748;53.102;8.456;2023-05-10T13:40:58;20.70;62.50
11387;DHT22;5748;53.102;8.456;2023-05-10T13:43:25;20.80;63.00
11387;DHT22;5748;53.102;8.456;2023-05-10T13:45:52;20.80;63.30
11387;DHT22;5748;53.102;8.456;2023-05-10T13:48:19;20.90;63.70
11387;DHT22;5748;53.102;8.456;2023-05-10T13:50:47;21.10;63.90
11387;DHT22;5748;53.102;8.456;2023-05-10T13:53:15;21.20;63.50
11387;DHT22;5748;53.102;8.456;2023-05-10T13:55:42;21.30;63.00
11387;DHT22;5748;53.102;8.456;2023-05-10T13:58:09;21.40;63.10
11387;DHT22;5748;53.102;8.456;2023-05-10T14:00:36;21.50;63.30
11387;DHT22;5748;53.102;8.456;2023-05-10T14:03:03;22.20;64.40
11387;DHT22;5748;53.102;8.456;2023-05-10T14:05:31;21.70;63.70
11387;DHT22;5748;53.102;8.456;2023-05-10T14:07:58;21.90;64.00
11387;DHT22;5748;53.102;8.456;2023-05-10T14:10:27;22.10;63.80
11387;DHT22;5748;53.102;8.456;2023-05-10T14:12:54;22.20;63.30
11387;DHT22;5748;53.102;8.456;2023-05-10T14:15:22;22.30;62.60
11387;DHT22;5748;53.102;8.456;2023-05-10T14:17:49;22.40;61.90
11387;DHT22;5748;53.102;8.456;2023-05-10T14:20:16;22.40;61.30
11387;DHT22;5748;53.102;8.456;2023-05-10T14:22:43;22.40;61.00
11387;DHT22;5748;53.102;8.456;2023-05-10T14:25:10;22.30;60.60
11387;DHT22;5748;53.102;8.456;2023-05-10T14:27:38;22.30;60.50
11387;DHT22;5748;53.102;8.456;2023-05-10T14:30:07;22.20;60.30
11387;DHT22;5748;53.102;8.456;2023-05-10T14:32:34;22.10;60.40
11387;DHT22;5748;53.102;8.456;2023-05-10T14:35:02;22.00;60.60
11387;DHT22;5748;53.102;8.456;2023-05-10T14:37:29;22.00;61.00
11387;DHT22;5748;53.102;8.456;2023-05-10T14:39:57;21.90;61.30
11387;DHT22;5748;53.102;8.456;2023-05-10T14:42:24;22.00;61.80
11387;DHT22;5748;53.102;8.456;2023-05-10T14:44:52;22.00;62.00
11387;DHT22;5748;53.102;8.456;2023-05-10T14:47:20;22.10;61.90
11387;DHT22;5748;53.102;8.456;2023-05-10T14:49:47;22.10;61.70
11387;DHT22;5748;53.102;8.456;2023-05-10T14:52:14;22.20;61.40
11387;DHT22;5748;53.102;8.456;2023-05-10T14:54:42;22.20;61.10
11387;DHT22;5748;53.102;8.456;2023-05-10T14:57:09;22.20;60.70
11387;DHT22;5748;53.102;8.456;2023-05-10T14:59:36;22.10;60.20
11387;DHT22;5748;53.102;8.456;2023-05-10T15:02:04;22.10;60.30
11387;DHT22;5748;53.102;8.456;2023-05-10T15:04:33;22.00;60.20
11387;DHT22;5748;53.102;8.456;2023-05-10T15:07:01;21.90;60.20
11387;DHT22;5748;53.102;8.456;2023-05-10T15:09:28;21.80;60.40
11387;DHT22;5748;53.102;8.456;2023-05-10T15:12:19;21.70;60.30
11387;DHT22;5748;53.102;8.456;2023-05-10T15:14:46;21.70;60.70
11387;DHT22;5748;53.102;8.456;2023-05-10T15:17:14;21.70;61.10
11387;DHT22;5748;53.102;8.456;2023-05-10T15:19:41;21.60;61.30
11387;DHT22;5748;53.102;8.456;2023-05-10T15:22:09;21.70;61.60
11387;DHT22;5748;53.102;8.456;2023-05-10T15:24:36;21.80;61.50
11387;DHT22;5748;53.102;8.456;2023-05-10T15:27:12;21.80;61.30
11387;DHT22;5748;53.102;8.456;2023-05-10T15:29:57;21.90;60.90
11387;DHT22;5748;53.102;8.456;2023-05-10T15:32:27;21.90;60.80
11387;DHT22;5748;53.102;8.456;2023-05-10T15:34:54;22.00;60.80
11387;DHT22;5748;53.102;8.456;2023-05-10T15:37:21;22.00;60.70
11387;DHT22;5748;53.102;8.456;2023-05-10T15:39:49;22.00;60.50
11387;DHT22;5748;53.102;8.456;2023-05-10T15:42:16;22.00;60.40
11387;DHT22;5748;53.102;8.456;2023-05-10T15:44:54;22.00;60.40
11387;DHT22;5748;53.102;8.456;2023-05-10T15:47:24;22.00;60.40
11387;DHT22;5748;53.102;8.456;2023-05-10T15:49:55;22.00;60.40
11387;DHT22;5748;53.102;8.456;2023-05-10T15:54:59;22.00;59.80
11387;DHT22;5748;53.102;8.456;2023-05-10T15:57:28;22.00;60.00
11387;DHT22;5748;53.102;8.456;2023-05-10T15:59:55;22.10;60.40
11387;DHT22;5748;53.102;8.456;2023-05-10T16:02:22;22.10;60.50
11387;DHT22;5748;53.102;8.456;2023-05-10T16:04:51;22.10;60.40
11387;DHT22;5748;53.102;8.456;2023-05-10T16:07:18;22.00;60.40